createdAt,value
2023-03-14T00:01:51.635Z,12.91
2023-03-14T00:04:20.346Z,13.31
2023-03-14T00:06:47.836Z,12.48
2023-03-14T00:09:14.808Z,12.33
2023-03-14T00:11:42.208Z,12.35
2023-03-14T00:14:08.667Z,12.61
2023-03-14T00:16:35.033Z,12.20
2023-03-14T00:19:01.716Z,12.91
2023-03-14T00:21:28.207Z,12.59
2023-03-14T00:23:54.903Z,12.46
2023-03-14T00:26:22.551Z,12.48
2023-03-14T00:28:52.956Z,12.40
2023-03-14T00:31:19.884Z,12.04
2023-03-14T00:33:47.004Z,12.70
2023-03-14T00:36:15.760Z,12.53
2023-03-14T00:38:43.861Z,12.70
2023-03-14T00:41:12.860Z,12.95
2023-03-14T00:43:39.565Z,12.96
2023-03-14T00:46:06.707Z,12.63
2023-03-14T00:48:33.590Z,13.53
2023-03-14T00:50:59.983Z,12.81
2023-03-14T00:53:26.405Z,12.67
2023-03-14T00:55:52.766Z,12.73
2023-03-14T00:58:19.642Z,12.34
2023-03-14T01:00:46.839Z,13.13
2023-03-14T01:03:15.549Z,12.78
2023-03-14T01:05:42.267Z,12.61
2023-03-14T01:08:08.731Z,12.58
2023-03-14T01:10:38.426Z,12.29
2023-03-14T01:13:04.904Z,12.51
2023-03-14T01:15:33.461Z,12.43
2023-03-14T01:17:59.960Z,12.80
2023-03-14T01:20:26.400Z,12.84
2023-03-14T01:22:52.817Z,12.37
2023-03-14T01:25:19.505Z,12.36
2023-03-14T01:27:46.195Z,12.67
2023-03-14T01:30:13.626Z,12.73
2023-03-14T01:32:40.915Z,12.87
2023-03-14T01:35:07.936Z,12.79
2023-03-14T01:37:34.514Z,12.73
2023-03-14T01:40:01.050Z,13.20
2023-03-14T01:42:27.576Z,13.21
2023-03-14T01:44:59.403Z,13.20
2023-03-14T01:47:26.882Z,12.86
2023-03-14T01:50:09.005Z,12.99
2023-03-14T01:52:44.889Z,12.69
2023-03-14T01:55:16.826Z,11.84
2023-03-14T01:57:53.838Z,13.29
2023-03-14T02:00:24.109Z,13.24
2023-03-14T02:03:03.312Z,12.95
2023-03-14T02:05:36.802Z,12.85
2023-03-14T02:08:06.638Z,12.87
2023-03-14T02:10:38.002Z,12.94
2023-03-14T02:13:06.052Z,13.04
2023-03-14T02:15:33.374Z,12.54
2023-03-14T02:18:02.535Z,12.49
2023-03-14T02:20:48.610Z,13.28
2023-03-14T02:23:18.052Z,13.02
2023-03-14T02:25:52.161Z,13.48
2023-03-14T02:28:18.818Z,12.29
2023-03-14T02:30:45.825Z,13.17
2023-03-14T02:33:15.287Z,13.49
2023-03-14T02:35:47.489Z,13.32
2023-03-14T02:38:23.429Z,13.03
2023-03-14T02:40:50.657Z,13.28
2023-03-14T02:43:17.517Z,12.20
2023-03-14T02:45:49.090Z,13.23
2023-03-14T02:48:26.064Z,13.28
2023-03-14T02:50:59.750Z,12.48
2023-03-14T02:53:30.091Z,12.92
2023-03-14T02:55:56.544Z,13.19
2023-03-14T02:58:23.045Z,13.33
2023-03-14T03:00:49.650Z,13.10
2023-03-14T03:03:16.208Z,13.00
2023-03-14T03:05:43.561Z,12.77
2023-03-14T03:08:10.404Z,11.97
2023-03-14T03:10:37.009Z,12.87
2023-03-14T03:13:03.512Z,12.64
2023-03-14T03:15:29.993Z,12.80
2023-03-14T03:17:56.385Z,12.96
2023-03-14T03:20:22.831Z,12.42
2023-03-14T03:22:50.808Z,12.41
2023-03-14T03:25:17.759Z,11.95
2023-03-14T03:27:44.153Z,11.80
2023-03-14T03:30:11.371Z,12.48
2023-03-14T03:32:37.832Z,12.06
2023-03-14T03:35:05.648Z,12.29
2023-03-14T03:37:33.606Z,12.47
2023-03-14T03:40:00.222Z,11.78
2023-03-14T03:42:30.004Z,12.41
2023-03-14T03:44:56.539Z,12.34
2023-03-14T03:47:22.958Z,12.06
2023-03-14T03:49:49.406Z,11.95
2023-03-14T03:52:15.788Z,11.81
2023-03-14T03:54:42.181Z,11.57
2023-03-14T03:57:08.634Z,12.24
2023-03-14T03:59:35.100Z,12.20
2023-03-14T04:02:01.847Z,12.56
2023-03-14T04:04:28.313Z,12.14
2023-03-14T04:06:54.868Z,11.89
2023-03-14T04:09:21.253Z,11.78
2023-03-14T04:11:47.702Z,12.18
2023-03-14T04:14:14.124Z,12.35
2023-03-14T04:16:40.613Z,12.40
2023-03-14T04:19:07.198Z,12.22
2023-03-14T04:21:33.697Z,11.56
2023-03-14T04:24:00.152Z,12.41
2023-03-14T04:26:26.567Z,12.59
2023-03-14T04:28:53.005Z,12.42
2023-03-14T04:31:22.212Z,12.63
2023-03-14T04:33:48.795Z,12.57
2023-03-14T04:36:15.397Z,12.34
2023-03-14T04:38:42.072Z,12.47
2023-03-14T04:41:08.486Z,12.05
2023-03-14T04:43:34.953Z,12.33
2023-03-14T04:46:01.477Z,12.18
2023-03-14T04:48:29.232Z,12.38
2023-03-14T04:50:56.055Z,12.31
2023-03-14T04:53:22.857Z,12.26
2023-03-14T04:55:55.777Z,12.78
2023-03-14T04:58:23.237Z,12.66
2023-03-14T05:00:49.661Z,12.18
2023-03-14T05:03:17.555Z,12.34
2023-03-14T05:05:44.444Z,12.26
2023-03-14T05:08:12.441Z,12.83
2023-03-14T05:10:41.010Z,12.13
2023-03-14T05:13:07.405Z,12.84
2023-03-14T05:15:33.841Z,12.28
2023-03-14T05:18:01.282Z,12.58
2023-03-14T05:20:27.704Z,12.11
2023-03-14T05:22:55.232Z,12.26
2023-03-14T05:25:21.632Z,11.80
2023-03-14T05:27:48.058Z,12.49
2023-03-14T05:30:19.829Z,12.58
2023-03-14T05:32:46.404Z,12.49
2023-03-14T05:35:13.082Z,12.04
2023-03-14T05:37:40.005Z,11.97
2023-03-14T05:40:07.621Z,12.19
2023-03-14T05:42:34.225Z,12.31
2023-03-14T05:45:00.729Z,12.01
2023-03-14T05:51:24.143Z,12.64
2023-03-14T05:54:23.193Z,12.60
2023-03-14T05:56:49.660Z,11.91
2023-03-14T05:59:16.064Z,12.39
2023-03-14T06:01:42.519Z,12.53
2023-03-14T06:04:10.013Z,12.59
2023-03-14T06:06:39.369Z,12.57
2023-03-14T06:09:05.798Z,12.58
2023-03-14T06:11:32.169Z,12.67
2023-03-14T06:13:58.598Z,12.48
2023-03-14T06:16:25.103Z,12.59
2023-03-14T06:18:53.147Z,12.52
2023-03-14T06:21:20.465Z,12.87
2023-03-14T06:23:46.941Z,12.72
2023-03-14T06:26:13.533Z,12.82
2023-03-14T06:28:45.878Z,12.62
2023-03-14T06:31:12.486Z,12.31
2023-03-14T06:33:38.999Z,12.13
2023-03-14T06:36:05.765Z,12.73
2023-03-14T06:38:32.383Z,12.21
2023-03-14T06:41:06.861Z,12.45
2023-03-14T06:43:33.322Z,12.80
2023-03-14T06:45:59.934Z,12.39
2023-03-14T06:48:26.512Z,12.79
2023-03-14T06:50:52.955Z,12.93
2023-03-14T06:53:19.365Z,12.47
2023-03-14T06:55:46.610Z,12.18
2023-03-14T06:58:13.259Z,12.58
2023-03-14T07:00:42.843Z,12.82
2023-03-14T07:03:12.946Z,12.43
2023-03-14T07:05:41.442Z,12.76
2023-03-14T07:08:09.371Z,12.74
2023-03-14T07:10:38.271Z,12.80
2023-03-14T07:13:04.849Z,12.49
2023-03-14T07:15:31.755Z,12.92
2023-03-14T07:17:58.346Z,12.95
2023-03-14T07:20:24.978Z,12.99
2023-03-14T07:22:51.663Z,12.99
2023-03-14T07:25:18.842Z,12.64
2023-03-14T07:27:46.248Z,12.92
2023-03-14T07:30:13.254Z,12.58
2023-03-14T07:32:39.779Z,12.65
2023-03-14T07:35:07.223Z,12.71
2023-03-14T07:37:33.617Z,13.13
2023-03-14T07:40:00.080Z,13.04
2023-03-14T07:42:26.568Z,12.55
2023-03-14T07:44:53.522Z,13.04
2023-03-14T07:47:20.118Z,12.97
2023-03-14T07:49:46.483Z,12.52
2023-03-14T07:52:14.037Z,13.15
2023-03-14T07:54:49.536Z,12.90
2023-03-14T07:57:15.954Z,12.88
2023-03-14T07:59:42.384Z,13.45
2023-03-14T08:02:12.714Z,13.35
2023-03-14T08:04:41.022Z,12.72
2023-03-14T08:07:07.855Z,13.39
2023-03-14T08:09:34.520Z,13.20
2023-03-14T08:12:03.662Z,12.57
2023-03-14T08:14:31.318Z,13.26
2023-03-14T08:16:57.766Z,12.40
2023-03-14T08:19:24.166Z,12.95
2023-03-14T08:21:53.045Z,13.00
2023-03-14T08:24:19.426Z,12.78
2023-03-14T08:26:45.894Z,12.85
2023-03-14T08:29:13.821Z,13.03
2023-03-14T08:31:40.201Z,12.77
2023-03-14T08:34:07.675Z,12.61
2023-03-14T08:36:34.856Z,12.76
2023-03-14T08:39:01.529Z,13.02
2023-03-14T08:41:28.087Z,12.74
2023-03-14T08:43:54.569Z,12.73
2023-03-14T08:46:21.123Z,12.97
2023-03-14T08:48:48.175Z,12.43
2023-03-14T08:51:15.284Z,11.36
2023-03-14T08:53:42.652Z,12.05
2023-03-14T08:56:10.999Z,11.70
2023-03-14T08:58:38.870Z,11.07
2023-03-14T09:01:13.341Z,10.64
2023-03-14T09:03:39.982Z,10.97
2023-03-14T09:06:09.056Z,10.95
2023-03-14T09:08:38.097Z,10.99
2023-03-14T09:11:09.330Z,10.63
2023-03-14T09:13:36.532Z,10.47
2023-03-14T09:16:03.014Z,10.26
2023-03-14T09:18:29.956Z,10.60
2023-03-14T09:20:57.133Z,11.04
2023-03-14T09:23:23.536Z,10.47
2023-03-14T09:25:50.491Z,10.58
2023-03-14T09:28:19.369Z,10.99
2023-03-14T09:30:45.800Z,10.45
2023-03-14T09:33:12.210Z,10.64
2023-03-14T09:35:38.668Z,10.78
2023-03-14T09:38:06.363Z,10.54
2023-03-14T09:40:36.156Z,10.38
2023-03-14T09:43:03.678Z,10.76
2023-03-14T09:45:37.829Z,10.44
2023-03-14T09:48:05.167Z,10.38
2023-03-14T09:50:41.268Z,10.27
2023-03-14T09:53:16.703Z,10.22
2023-03-14T09:55:44.099Z,10.23
2023-03-14T09:58:13.548Z,9.89
2023-03-14T10:00:40.477Z,9.78
2023-03-14T10:03:13.058Z,10.59
2023-03-14T10:05:43.324Z,10.05
2023-03-14T10:08:14.381Z,10.71
2023-03-14T10:10:41.344Z,10.56
2023-03-14T10:13:19.987Z,10.49
2023-03-14T10:15:55.053Z,10.46
2023-03-14T10:18:23.532Z,10.39
2023-03-14T10:20:50.893Z,10.51
2023-03-14T10:23:17.201Z,10.56
2023-03-14T10:25:46.032Z,10.63
2023-03-14T10:28:30.318Z,10.88
2023-03-14T10:30:57.593Z,10.75
2023-03-14T10:33:28.652Z,11.07
2023-03-14T10:36:24.642Z,11.04
2023-03-14T10:38:51.036Z,10.72
2023-03-14T10:41:26.510Z,11.37
2023-03-14T10:43:59.998Z,11.26
2023-03-14T10:46:30.654Z,11.07
2023-03-14T10:48:57.764Z,11.23
2023-03-14T10:51:29.516Z,11.18
2023-03-14T10:54:19.756Z,10.85
2023-03-14T10:56:48.442Z,10.11
2023-03-14T10:59:16.468Z,10.20
2023-03-14T11:02:07.605Z,9.98
2023-03-14T11:05:05.501Z,9.83
2023-03-14T11:07:46.106Z,9.67
2023-03-14T11:10:21.698Z,9.52
2023-03-14T11:13:03.546Z,10.06
2023-03-14T11:15:46.110Z,9.44
2023-03-14T11:18:45.695Z,9.92
2023-03-14T11:21:38.698Z,9.60
2023-03-14T11:24:32.433Z,9.98
2023-03-14T11:27:11.793Z,9.64
2023-03-14T11:29:41.363Z,10.76
2023-03-14T11:32:20.429Z,10.79
2023-03-14T11:34:56.099Z,10.47
2023-03-14T11:37:46.925Z,11.63
2023-03-14T11:40:22.640Z,11.06
2023-03-14T11:42:57.225Z,11.05
2023-03-14T11:45:42.151Z,11.12
2023-03-14T11:48:19.050Z,10.88
2023-03-14T11:50:52.487Z,10.45
2023-03-14T11:53:37.259Z,10.17
2023-03-14T11:56:05.171Z,10.24
2023-03-14T11:58:38.808Z,10.37
2023-03-14T12:01:12.003Z,10.12
2023-03-14T12:03:48.071Z,10.20
2023-03-14T12:06:25.406Z,11.35
2023-03-14T12:09:06.276Z,11.36
2023-03-14T12:11:41.757Z,12.05
2023-03-14T12:14:31.823Z,12.55
2023-03-14T12:17:19.671Z,12.48
2023-03-14T12:19:47.954Z,11.51
2023-03-14T12:22:26.498Z,11.51
2023-03-14T12:24:58.541Z,11.51
2023-03-14T12:27:57.531Z,12.18
2023-03-14T12:30:29.286Z,12.32
2023-03-14T12:33:13.810Z,13.17
2023-03-14T12:35:49.704Z,13.20
2023-03-14T12:38:25.391Z,13.40
2023-03-14T12:41:15.172Z,14.27
2023-03-14T12:43:42.156Z,14.87
2023-03-14T12:46:21.920Z,14.35
2023-03-14T12:49:04.020Z,13.12
2023-03-14T12:51:44.447Z,13.03
2023-03-14T12:54:37.134Z,11.06
2023-03-14T12:57:17.937Z,9.83
2023-03-14T12:59:58.252Z,9.38
2023-03-14T13:02:44.498Z,9.54
2023-03-14T13:05:14.640Z,9.49
2023-03-14T13:07:47.092Z,10.10
2023-03-14T13:10:26.163Z,9.54
2023-03-14T13:13:08.507Z,9.67
2023-03-14T13:15:43.756Z,9.99
2023-03-14T13:18:15.270Z,9.66
2023-03-14T13:20:54.029Z,10.13
2023-03-14T13:23:25.192Z,9.95
2023-03-14T13:25:52.044Z,9.65
2023-03-14T13:28:21.628Z,10.33
2023-03-14T13:30:53.654Z,9.39
2023-03-14T13:33:22.498Z,10.66
2023-03-14T13:35:56.983Z,9.95
2023-03-14T13:38:28.683Z,10.10
2023-03-14T13:41:00.733Z,9.86
2023-03-14T13:43:35.253Z,9.87
2023-03-14T13:46:07.883Z,10.18
2023-03-14T13:48:40.257Z,9.44
2023-03-14T13:51:10.135Z,9.54
2023-03-14T13:53:55.351Z,10.16
2023-03-14T13:56:24.354Z,10.20
2023-03-14T13:58:51.250Z,11.03
2023-03-14T14:01:25.580Z,10.93
2023-03-14T14:03:55.789Z,10.37
2023-03-14T14:06:45.686Z,10.85
2023-03-14T14:09:20.820Z,10.66
2023-03-14T14:12:11.255Z,10.31
2023-03-14T14:14:57.179Z,11.59
2023-03-14T14:17:37.386Z,11.16
2023-03-14T14:20:09.931Z,11.42
2023-03-14T14:22:36.872Z,10.87
2023-03-14T14:25:04.299Z,10.84
2023-03-14T14:27:36.610Z,11.10
2023-03-14T14:30:07.386Z,11.36
2023-03-14T14:32:39.249Z,11.85
2023-03-14T14:35:07.097Z,11.17
2023-03-14T14:37:36.611Z,11.30
2023-03-14T14:40:11.619Z,11.16
2023-03-14T14:42:42.365Z,10.97
2023-03-14T14:45:19.602Z,11.08
2023-03-14T14:48:06.503Z,11.08
2023-03-14T14:50:34.584Z,11.60
2023-03-14T14:53:25.833Z,11.82
2023-03-14T14:56:04.375Z,11.88
2023-03-14T14:58:40.615Z,10.85
2023-03-14T15:01:24.671Z,11.53
2023-03-14T15:03:59.030Z,11.20
2023-03-14T15:06:28.765Z,11.74
2023-03-14T15:08:56.482Z,11.02
2023-03-14T15:11:32.531Z,10.85
2023-03-14T15:13:59.020Z,10.75
2023-03-14T15:16:31.066Z,10.51
2023-03-14T15:19:23.646Z,11.03
2023-03-14T15:21:52.267Z,10.46
2023-03-14T15:24:18.858Z,10.56
2023-03-14T15:26:48.737Z,10.32
2023-03-14T15:29:15.245Z,10.52
2023-03-14T15:31:44.840Z,10.29
2023-03-14T15:34:21.853Z,10.93
2023-03-14T15:36:49.169Z,11.02
2023-03-14T15:39:24.914Z,10.22
2023-03-14T15:41:51.482Z,10.50
2023-03-14T15:44:28.386Z,11.31
2023-03-14T15:47:01.498Z,10.36
2023-03-14T15:49:28.765Z,9.92
2023-03-14T15:51:57.789Z,10.14
2023-03-14T15:54:25.109Z,9.82
2023-03-14T15:56:54.844Z,10.23
2023-03-14T15:59:31.576Z,9.70
2023-03-14T16:02:04.150Z,10.74
2023-03-14T16:04:30.663Z,9.79
2023-03-14T16:07:00.945Z,10.27
2023-03-14T16:09:28.052Z,10.43
2023-03-14T16:11:56.244Z,9.93
2023-03-14T16:14:24.728Z,9.67
2023-03-14T16:16:53.428Z,10.41
2023-03-14T16:19:19.924Z,10.09
2023-03-14T16:21:46.891Z,9.75
2023-03-14T16:24:13.335Z,10.19
2023-03-14T16:26:43.392Z,9.65
2023-03-14T16:29:13.313Z,9.87
2023-03-14T16:31:43.068Z,10.02
2023-03-14T16:34:10.509Z,9.47
2023-03-14T16:36:37.598Z,9.25
2023-03-14T16:39:07.066Z,9.64
2023-03-14T16:41:36.582Z,10.29
2023-03-14T16:44:03.339Z,9.69
2023-03-14T16:46:30.576Z,9.73
2023-03-14T16:49:01.099Z,9.65
2023-03-14T16:51:28.230Z,9.46
2023-03-14T16:54:12.759Z,9.82
2023-03-14T16:56:39.435Z,10.00
2023-03-14T16:59:11.570Z,8.64
2023-03-14T17:01:47.558Z,9.07
2023-03-14T17:04:21.756Z,8.22
2023-03-14T17:06:48.393Z,10.16
2023-03-14T17:09:15.172Z,8.72
2023-03-14T17:11:42.104Z,9.28
2023-03-14T17:14:11.231Z,8.87
2023-03-14T17:16:45.677Z,8.20
2023-03-14T17:19:12.224Z,9.02
2023-03-14T17:21:38.849Z,8.97
2023-03-14T17:24:07.953Z,9.69
2023-03-14T17:26:34.588Z,8.80
2023-03-14T17:29:01.224Z,8.66
2023-03-14T17:31:28.010Z,9.20
2023-03-14T17:33:55.226Z,8.47
2023-03-14T17:36:29.020Z,8.44
2023-03-14T17:38:57.592Z,9.35
2023-03-14T17:41:27.278Z,9.06
2023-03-14T17:43:55.884Z,8.50
2023-03-14T17:46:22.449Z,9.23
2023-03-14T17:48:51.785Z,8.94
2023-03-14T17:51:18.849Z,8.68
2023-03-14T17:53:45.410Z,8.99
2023-03-14T17:56:12.720Z,8.43
2023-03-14T17:58:39.718Z,8.30
2023-03-14T18:01:34.228Z,8.97
2023-03-14T18:04:03.067Z,9.26
2023-03-14T18:06:31.667Z,9.40
2023-03-14T18:08:59.970Z,7.93
2023-03-14T18:11:26.798Z,8.79
2023-03-14T18:13:53.325Z,9.02
2023-03-14T18:16:22.604Z,8.45
2023-03-14T18:18:49.448Z,7.67
2023-03-14T18:21:17.336Z,7.95
2023-03-14T18:23:43.768Z,8.15
2023-03-14T18:26:10.409Z,8.24
2023-03-14T18:28:36.863Z,8.07
2023-03-14T18:31:07.932Z,8.47
2023-03-14T18:33:41.174Z,8.83
2023-03-14T18:36:14.514Z,8.74
2023-03-14T18:38:48.220Z,8.65
2023-03-14T18:41:16.702Z,9.14
2023-03-14T18:43:43.615Z,8.43
2023-03-14T18:46:13.523Z,8.55
2023-03-14T18:48:42.126Z,8.31
2023-03-14T18:51:17.277Z,8.36
2023-03-14T18:53:45.175Z,8.12
2023-03-14T18:56:14.022Z,8.05
2023-03-14T18:58:41.419Z,8.83
2023-03-14T19:01:08.238Z,8.51
2023-03-14T19:03:37.676Z,8.82
2023-03-14T19:06:08.607Z,8.88
2023-03-14T19:08:36.438Z,9.14
2023-03-14T19:11:05.513Z,8.23
2023-03-14T19:13:33.579Z,7.72
2023-03-14T19:16:01.046Z,8.39
2023-03-14T19:18:28.541Z,8.35
2023-03-14T19:21:07.511Z,8.86
2023-03-14T19:23:35.648Z,8.90
2023-03-14T19:26:07.237Z,8.09
2023-03-14T19:28:33.827Z,7.69
2023-03-14T19:31:03.514Z,8.77
2023-03-14T19:33:31.082Z,8.77
2023-03-14T19:35:58.426Z,8.54
2023-03-14T19:38:25.093Z,7.59
2023-03-14T19:40:56.715Z,7.71
2023-03-14T19:43:23.220Z,7.21
2023-03-14T19:45:49.689Z,8.38
2023-03-14T19:48:16.225Z,7.81
2023-03-14T19:50:43.383Z,8.01
2023-03-14T19:53:10.542Z,7.98
2023-03-14T19:55:37.581Z,7.46
2023-03-14T19:58:04.369Z,7.84
2023-03-14T20:00:33.844Z,8.08
2023-03-14T20:03:04.486Z,8.27
2023-03-14T20:05:30.864Z,8.04
2023-03-14T20:07:57.334Z,8.00
2023-03-14T20:10:23.786Z,8.10
2023-03-14T20:12:53.305Z,7.53
2023-03-14T20:15:28.829Z,7.46
2023-03-14T20:17:55.319Z,7.36
2023-03-14T20:20:48.299Z,7.30
2023-03-14T20:23:15.529Z,7.70
2023-03-14T20:25:42.447Z,7.78
2023-03-14T20:28:08.845Z,7.22
2023-03-14T20:30:35.452Z,7.81
2023-03-14T20:33:04.992Z,7.28
2023-03-14T20:35:31.525Z,7.67
2023-03-14T20:37:58.048Z,7.33
2023-03-14T20:40:28.639Z,7.93
2023-03-14T20:42:55.168Z,7.69
2023-03-14T20:45:21.533Z,7.86
2023-03-14T20:47:47.916Z,7.19
2023-03-14T20:50:14.356Z,7.72
2023-03-14T20:52:41.789Z,7.38
2023-03-14T20:55:08.632Z,7.05
2023-03-14T20:57:35.119Z,7.25
2023-03-14T21:00:01.661Z,7.32
2023-03-14T21:02:28.036Z,7.09
2023-03-14T21:04:57.629Z,7.40
2023-03-14T21:07:24.083Z,7.17
2023-03-14T21:09:50.417Z,7.17
2023-03-14T21:12:16.760Z,6.82
2023-03-14T21:14:43.286Z,7.18
2023-03-14T21:17:09.689Z,6.81
2023-03-14T21:19:36.094Z,7.09
2023-03-14T21:22:31.989Z,7.22
2023-03-14T21:28:36.644Z,6.66
2023-03-14T21:31:14.111Z,7.10
2023-03-14T21:33:44.319Z,6.52
2023-03-14T21:39:48.649Z,7.22
2023-03-14T21:42:33.346Z,6.56
2023-03-14T21:45:22.389Z,7.06
2023-03-14T21:47:48.873Z,6.53
2023-03-14T21:50:15.492Z,6.61
2023-03-14T21:52:46.189Z,6.94
2023-03-14T21:55:17.494Z,6.50
2023-03-14T21:57:48.543Z,6.64
2023-03-14T22:00:19.725Z,6.11
2023-03-14T22:03:03.316Z,6.51
2023-03-14T22:05:34.538Z,7.13
2023-03-14T22:08:01.014Z,6.66
2023-03-14T22:10:27.584Z,6.42
2023-03-14T22:12:56.030Z,6.32
2023-03-14T22:15:22.476Z,6.41
2023-03-14T22:17:48.940Z,6.29
2023-03-14T22:20:15.697Z,6.88
2023-03-14T22:22:42.227Z,6.73
2023-03-14T22:25:09.227Z,6.37
2023-03-14T22:27:35.785Z,6.96
2023-03-14T22:30:02.246Z,6.79
2023-03-14T22:32:28.903Z,7.06
2023-03-14T22:34:55.265Z,7.04
2023-03-14T22:37:23.236Z,6.40
2023-03-14T22:39:49.587Z,6.46
2023-03-14T22:42:16.053Z,6.43
2023-03-14T22:44:42.481Z,7.07
2023-03-14T22:47:09.069Z,6.96
2023-03-14T22:49:35.465Z,6.49
2023-03-14T22:52:01.974Z,6.89
2023-03-14T22:54:28.443Z,7.04
2023-03-14T22:56:55.047Z,7.05
2023-03-14T22:59:21.553Z,6.63
2023-03-14T23:01:47.998Z,6.21
2023-03-14T23:04:14.379Z,6.31
2023-03-14T23:06:40.762Z,6.74
2023-03-14T23:09:07.164Z,6.78
2023-03-14T23:11:35.390Z,5.95
2023-03-14T23:14:03.529Z,6.39
2023-03-14T23:16:38.046Z,6.63
2023-03-14T23:19:06.658Z,6.88
2023-03-14T23:21:33.150Z,6.70
2023-03-14T23:23:59.619Z,6.72
2023-03-14T23:26:27.163Z,6.84
2023-03-14T23:28:54.609Z,6.33
2023-03-14T23:31:21.728Z,6.69
2023-03-14T23:33:49.934Z,5.69
2023-03-14T23:36:18.340Z,5.53
2023-03-14T23:38:46.004Z,5.63
2023-03-14T23:41:15.732Z,6.90
2023-03-14T23:43:44.316Z,6.13
2023-03-14T23:46:11.671Z,7.01
2023-03-14T23:48:38.206Z,6.32
2023-03-14T23:51:06.948Z,6.37
2023-03-14T23:53:33.904Z,6.78
2023-03-14T23:56:01.255Z,6.53
2023-03-14T23:58:27.796Z,7.06
